createdAt,value
2023-05-14T00:01:42.755Z,4.56
2023-05-14T00:04:09.591Z,5.00
2023-05-14T00:06:36.273Z,4.96
2023-05-14T00:09:03.045Z,4.52
2023-05-14T00:11:29.731Z,4.58
2023-05-14T00:13:56.342Z,4.06
2023-05-14T00:16:22.986Z,3.74
2023-05-14T00:18:49.703Z,3.84
2023-05-14T00:21:16.342Z,3.70
2023-05-14T00:23:42.961Z,3.68
2023-05-14T00:26:09.557Z,3.41
2023-05-14T00:28:36.206Z,3.90
2023-05-14T00:31:02.831Z,3.76
2023-05-14T00:33:29.528Z,3.89
2023-05-14T00:35:56.120Z,3.89
2023-05-14T00:38:22.786Z,3.81
2023-05-14T00:40:49.470Z,3.68
2023-05-14T00:43:16.107Z,3.97
2023-05-14T00:45:42.697Z,4.04
2023-05-14T00:50:36.234Z,4.22
2023-05-14T00:53:02.847Z,3.89
2023-05-14T00:55:30.318Z,4.11
2023-05-14T00:57:56.971Z,4.27
2023-05-14T01:00:23.833Z,4.35
2023-05-14T01:02:50.661Z,4.30
2023-05-14T01:05:17.341Z,3.94
2023-05-14T01:07:57.992Z,4.35
2023-05-14T01:10:36.256Z,4.10
2023-05-14T01:13:10.966Z,4.87
2023-05-14T01:15:37.829Z,4.48
2023-05-14T01:18:07.035Z,4.35
2023-05-14T01:20:33.631Z,4.34
2023-05-14T01:23:00.328Z,4.37
2023-05-14T01:25:27.006Z,4.21
2023-05-14T01:28:01.239Z,4.21
2023-05-14T01:30:38.065Z,4.18
2023-05-14T01:33:10.803Z,4.28
2023-05-14T01:35:37.507Z,4.30
2023-05-14T01:38:05.366Z,4.12
2023-05-14T01:40:32.016Z,4.34
2023-05-14T01:42:58.741Z,4.38
2023-05-14T01:45:25.518Z,4.51
2023-05-14T01:47:52.245Z,4.29
2023-05-14T01:50:18.857Z,4.68
2023-05-14T01:52:45.483Z,4.64
2023-05-14T01:55:12.098Z,4.23
2023-05-14T01:57:38.706Z,4.24
2023-05-14T02:00:06.072Z,4.35
2023-05-14T02:02:32.736Z,4.84
2023-05-14T02:04:59.386Z,5.05
2023-05-14T02:07:26.006Z,5.13
2023-05-14T02:09:52.681Z,5.21
2023-05-14T02:12:19.330Z,5.45
2023-05-14T02:14:45.965Z,4.96
2023-05-14T02:17:12.571Z,4.81
2023-05-14T02:19:39.157Z,5.29
2023-05-14T02:22:05.765Z,5.18
2023-05-14T02:24:32.412Z,4.88
2023-05-14T02:26:59.088Z,5.16
2023-05-14T02:29:25.703Z,5.00
2023-05-14T02:31:52.405Z,5.00
2023-05-14T02:34:19.110Z,4.95
2023-05-14T02:36:45.766Z,4.86
2023-05-14T02:39:12.361Z,4.58
2023-05-14T02:41:38.982Z,4.97
2023-05-14T02:44:05.570Z,5.19
2023-05-14T02:46:32.360Z,5.16
2023-05-14T02:48:59.100Z,5.04
2023-05-14T02:51:25.718Z,5.28
2023-05-14T02:53:52.301Z,5.48
2023-05-14T02:56:18.952Z,5.28
2023-05-14T02:58:45.549Z,5.47
2023-05-14T03:01:12.285Z,5.67
2023-05-14T03:03:39.674Z,5.42
2023-05-14T03:06:06.813Z,5.23
2023-05-14T03:08:33.517Z,5.45
2023-05-14T03:11:00.158Z,5.31
2023-05-14T03:13:26.832Z,4.78
2023-05-14T03:15:53.493Z,4.66
2023-05-14T03:18:20.354Z,4.73
2023-05-14T03:20:46.931Z,4.67
2023-05-14T03:23:14.783Z,4.85
2023-05-14T03:25:41.503Z,5.02
2023-05-14T03:28:08.139Z,5.23
2023-05-14T03:30:34.892Z,4.86
2023-05-14T03:33:01.571Z,5.50
2023-05-14T03:35:28.222Z,5.71
2023-05-14T03:37:54.809Z,5.95
2023-05-14T03:40:21.721Z,5.58
2023-05-14T03:42:48.591Z,5.49
2023-05-14T03:45:15.230Z,5.84
2023-05-14T03:47:41.955Z,5.53
2023-05-14T03:50:08.936Z,6.55
2023-05-14T03:52:35.591Z,6.46
2023-05-14T03:55:02.340Z,6.58
2023-05-14T03:57:29.011Z,6.58
2023-05-14T03:59:55.601Z,6.31
2023-05-14T04:02:22.315Z,6.44
2023-05-14T04:04:49.097Z,6.42
2023-05-14T04:07:15.768Z,6.11
2023-05-14T04:09:42.377Z,6.38
2023-05-14T04:12:09.133Z,6.00
2023-05-14T04:14:35.760Z,6.24
2023-05-14T04:17:02.409Z,6.35
2023-05-14T04:19:29.081Z,6.22
2023-05-14T04:21:55.734Z,6.12
2023-05-14T04:24:22.366Z,5.96
2023-05-14T04:26:48.977Z,5.77
2023-05-14T04:29:15.581Z,5.71
2023-05-14T04:31:42.222Z,5.28
2023-05-14T04:34:08.893Z,5.13
2023-05-14T04:36:35.493Z,5.41
2023-05-14T04:39:02.111Z,5.38
2023-05-14T04:41:28.708Z,5.29
2023-05-14T04:43:59.831Z,5.31
2023-05-14T04:46:26.464Z,4.97
2023-05-14T04:48:53.064Z,4.45
2023-05-14T04:51:19.646Z,4.46
2023-05-14T04:53:46.230Z,4.58
2023-05-14T04:56:12.836Z,4.93
2023-05-14T04:58:39.432Z,5.58
2023-05-14T05:01:06.149Z,4.98
2023-05-14T05:03:32.914Z,4.95
2023-05-14T05:05:59.557Z,5.00
2023-05-14T05:08:26.379Z,5.10
2023-05-14T05:10:53.068Z,5.17
2023-05-14T05:13:19.719Z,5.23
2023-05-14T05:15:46.384Z,5.77
2023-05-14T05:18:13.105Z,5.77
2023-05-14T05:20:39.746Z,6.76
2023-05-14T05:23:06.378Z,8.02
2023-05-14T05:25:32.975Z,11.08
2023-05-14T05:27:59.565Z,11.84
2023-05-14T05:30:26.328Z,12.67
2023-05-14T05:32:53.089Z,12.40
2023-05-14T05:35:19.845Z,13.21
2023-05-14T05:37:46.472Z,13.48
2023-05-14T05:40:13.070Z,13.71
2023-05-14T05:42:40.241Z,13.61
2023-05-14T05:45:07.398Z,13.24
2023-05-14T05:47:34.005Z,12.72
2023-05-14T05:50:00.780Z,12.03
2023-05-14T05:52:27.540Z,11.60
2023-05-14T05:54:54.138Z,11.34
2023-05-14T05:57:20.824Z,11.55
2023-05-14T05:59:47.459Z,11.24
2023-05-14T06:02:14.180Z,12.30
2023-05-14T06:04:40.845Z,11.88
2023-05-14T06:07:07.502Z,13.37
2023-05-14T06:09:34.171Z,11.48
2023-05-14T06:12:00.770Z,13.70
2023-05-14T06:14:27.415Z,12.01
2023-05-14T06:16:54.133Z,12.66
2023-05-14T06:19:20.883Z,14.36
2023-05-14T06:21:47.557Z,13.91
2023-05-14T06:24:14.238Z,13.97
2023-05-14T06:26:40.851Z,13.96
2023-05-14T06:29:07.449Z,13.56
2023-05-14T06:31:34.061Z,14.38
2023-05-14T06:34:00.734Z,12.35
2023-05-14T06:36:27.321Z,12.29
2023-05-14T06:38:53.953Z,12.70
2023-05-14T06:41:20.568Z,13.11
2023-05-14T06:43:47.186Z,13.01
2023-05-14T06:46:13.777Z,11.92
2023-05-14T06:48:40.445Z,12.86
2023-05-14T06:51:07.085Z,13.42
2023-05-14T06:53:33.754Z,13.60
2023-05-14T06:56:00.407Z,14.13
2023-05-14T06:58:26.995Z,12.91
2023-05-14T07:00:53.600Z,12.49
2023-05-14T07:03:20.272Z,12.74
2023-05-14T07:05:46.864Z,12.55
2023-05-14T07:08:13.553Z,12.45
2023-05-14T07:10:40.143Z,12.24
2023-05-14T07:13:06.785Z,12.11
2023-05-14T07:15:33.393Z,12.22
2023-05-14T07:18:00.180Z,11.23
2023-05-14T07:20:27.166Z,10.54
2023-05-14T07:22:53.927Z,10.26
2023-05-14T07:25:20.526Z,10.56
2023-05-14T07:27:47.113Z,10.38
2023-05-14T07:30:13.800Z,10.07
2023-05-14T07:32:41.023Z,9.37
2023-05-14T07:35:08.618Z,10.49
2023-05-14T07:37:35.249Z,11.73
2023-05-14T07:40:01.891Z,11.27
2023-05-14T07:42:35.800Z,11.39
2023-05-14T07:45:04.469Z,10.05
2023-05-14T07:47:31.190Z,10.25
2023-05-14T07:49:57.936Z,9.65
2023-05-14T07:52:24.658Z,9.30
2023-05-14T07:54:51.330Z,9.03
2023-05-14T07:57:18.716Z,8.57
2023-05-14T07:59:45.394Z,9.05
2023-05-14T08:02:12.053Z,7.73
2023-05-14T08:04:39.443Z,8.00
2023-05-14T08:07:06.187Z,9.89
2023-05-14T08:09:32.812Z,10.60
2023-05-14T08:11:59.449Z,10.24
2023-05-14T08:14:26.089Z,10.01
2023-05-14T08:16:52.812Z,9.99
2023-05-14T08:19:19.682Z,9.58
2023-05-14T08:21:46.404Z,10.39
2023-05-14T08:24:13.077Z,10.52
2023-05-14T08:26:39.683Z,8.93
2023-05-14T08:29:06.893Z,7.66
2023-05-14T08:31:34.577Z,7.20
2023-05-14T08:34:01.449Z,8.25
2023-05-14T08:36:28.082Z,8.64
2023-05-14T08:38:54.740Z,9.35
2023-05-14T08:41:21.417Z,8.18
2023-05-14T08:44:00.179Z,6.57
2023-05-14T08:46:27.199Z,5.93
2023-05-14T08:49:01.460Z,6.15
2023-05-14T08:51:28.077Z,5.53
2023-05-14T08:53:54.995Z,6.74
2023-05-14T08:56:21.660Z,7.82
2023-05-14T08:58:48.457Z,8.21
2023-05-14T09:01:15.312Z,7.67
2023-05-14T09:03:41.943Z,7.31
2023-05-14T09:06:08.751Z,6.82
2023-05-14T09:08:35.649Z,6.67
2023-05-14T09:11:04.380Z,7.04
2023-05-14T09:13:31.088Z,7.04
2023-05-14T09:15:57.872Z,7.99
2023-05-14T09:18:25.224Z,7.68
2023-05-14T09:20:52.104Z,7.48
2023-05-14T09:23:18.773Z,6.87
2023-05-14T09:25:45.440Z,6.30
2023-05-14T09:28:12.104Z,6.02
2023-05-14T09:30:38.733Z,6.09
2023-05-14T09:33:05.379Z,7.46
2023-05-14T09:35:32.153Z,6.89
2023-05-14T09:37:58.776Z,7.21
2023-05-14T09:40:25.650Z,7.34
2023-05-14T09:42:52.437Z,7.51
2023-05-14T09:45:19.109Z,8.11
2023-05-14T09:47:45.863Z,7.46
2023-05-14T09:50:12.682Z,8.27
2023-05-14T09:52:39.351Z,8.74
2023-05-14T09:55:06.473Z,8.47
2023-05-14T09:57:33.127Z,8.19
2023-05-14T09:59:59.758Z,7.86
2023-05-14T10:02:30.282Z,9.19
2023-05-14T10:04:57.805Z,8.94
2023-05-14T10:07:27.378Z,8.53
2023-05-14T10:09:59.321Z,9.12
2023-05-14T10:12:26.202Z,8.92
2023-05-14T10:14:52.803Z,9.04
2023-05-14T10:17:22.378Z,8.70
2023-05-14T10:19:53.240Z,8.79
2023-05-14T10:22:22.901Z,7.86
2023-05-14T10:24:50.209Z,7.93
2023-05-14T10:27:16.948Z,7.56
2023-05-14T10:29:43.600Z,6.96
2023-05-14T10:32:10.255Z,7.22
2023-05-14T10:34:43.200Z,7.22
2023-05-14T10:37:19.417Z,8.19
2023-05-14T10:39:55.002Z,6.91
2023-05-14T10:42:34.944Z,6.82
2023-05-14T10:45:05.616Z,6.80
2023-05-14T10:47:32.292Z,6.10
2023-05-14T10:49:59.905Z,5.72
2023-05-14T10:52:26.594Z,5.21
2023-05-14T10:54:57.118Z,5.18
2023-05-14T10:57:28.701Z,4.86
2023-05-14T10:59:56.395Z,4.62
2023-05-14T11:02:30.131Z,4.16
2023-05-14T11:05:04.082Z,4.42
2023-05-14T11:07:31.998Z,4.61
2023-05-14T11:10:15.035Z,4.02
2023-05-14T11:12:43.427Z,3.43
2023-05-14T11:15:20.669Z,3.35
2023-05-14T11:17:47.817Z,3.58
2023-05-14T11:20:14.537Z,5.13
2023-05-14T11:22:41.683Z,5.81
2023-05-14T11:25:08.826Z,3.90
2023-05-14T11:27:39.038Z,4.19
2023-05-14T11:30:06.272Z,4.03
2023-05-14T11:32:33.034Z,3.76
2023-05-14T11:34:59.687Z,3.75
2023-05-14T11:37:26.315Z,3.85
2023-05-14T11:39:54.185Z,3.56
2023-05-14T11:42:21.310Z,3.77
2023-05-14T11:44:49.295Z,3.83
2023-05-14T11:47:17.056Z,3.84
2023-05-14T11:49:43.728Z,4.12
2023-05-14T11:52:10.493Z,3.70
2023-05-14T11:54:37.169Z,3.51
2023-05-14T11:57:08.514Z,3.51
2023-05-14T11:59:35.153Z,3.37
2023-05-14T12:02:01.980Z,3.51
2023-05-14T12:04:28.649Z,3.41
2023-05-14T12:06:57.337Z,3.53
2023-05-14T12:09:23.984Z,3.37
2023-05-14T12:11:50.994Z,3.49
2023-05-14T12:14:19.971Z,3.23
2023-05-14T12:16:46.808Z,3.74
2023-05-14T12:19:17.227Z,2.97
2023-05-14T12:21:44.251Z,2.92
2023-05-14T12:24:12.266Z,2.80
2023-05-14T12:26:38.929Z,2.68
2023-05-14T12:29:05.580Z,2.77
2023-05-14T12:31:33.277Z,2.80
2023-05-14T12:33:59.994Z,2.65
2023-05-14T12:36:26.665Z,2.42
2023-05-14T12:38:59.940Z,2.58
2023-05-14T12:41:26.611Z,2.91
2023-05-14T12:43:53.261Z,3.14
2023-05-14T12:46:19.979Z,3.00
2023-05-14T12:48:46.741Z,3.65
2023-05-14T12:51:13.410Z,7.19
2023-05-14T12:53:40.123Z,4.71
2023-05-14T12:56:06.829Z,3.75
2023-05-14T12:58:33.571Z,3.75
2023-05-14T13:01:00.232Z,3.01
2023-05-14T13:03:26.850Z,3.24
2023-05-14T13:05:53.758Z,2.68
2023-05-14T13:08:23.806Z,2.74
2023-05-14T13:10:53.916Z,2.95
2023-05-14T13:13:20.616Z,2.84
2023-05-14T13:15:47.242Z,2.47
2023-05-14T13:18:14.270Z,2.28
2023-05-14T13:20:43.102Z,2.02
2023-05-14T13:23:09.968Z,2.21
2023-05-14T13:25:36.623Z,2.02
2023-05-14T13:28:03.289Z,2.12
2023-05-14T13:30:29.970Z,2.18
2023-05-14T13:32:56.613Z,3.53
2023-05-14T13:35:23.361Z,11.62
2023-05-14T13:37:50.178Z,3.74
2023-05-14T13:40:16.810Z,6.67
2023-05-14T13:42:44.537Z,5.89
2023-05-14T13:45:11.341Z,3.13
2023-05-14T13:47:38.551Z,2.78
2023-05-14T13:50:07.926Z,2.91
2023-05-14T13:52:34.709Z,2.65
2023-05-14T13:55:01.373Z,2.86
2023-05-14T13:57:28.066Z,2.64
2023-05-14T13:59:54.761Z,2.56
2023-05-14T14:02:21.499Z,2.55
2023-05-14T14:04:48.241Z,2.36
2023-05-14T14:07:14.921Z,2.46
2023-05-14T14:09:41.770Z,3.04
2023-05-14T14:12:09.094Z,3.52
2023-05-14T14:14:35.786Z,2.24
2023-05-14T14:17:02.522Z,3.59
2023-05-14T14:19:29.872Z,3.37
2023-05-14T14:21:56.537Z,3.07
2023-05-14T14:24:23.300Z,2.83
2023-05-14T14:26:51.783Z,2.15
2023-05-14T14:29:18.498Z,11.40
2023-05-14T14:31:45.190Z,7.14
2023-05-14T14:34:11.970Z,2.69
2023-05-14T14:36:38.561Z,2.24
2023-05-14T14:39:05.194Z,2.19
2023-05-14T14:41:31.838Z,2.01
2023-05-14T14:43:58.484Z,2.01
2023-05-14T14:46:25.141Z,2.10
2023-05-14T14:48:51.889Z,2.05
2023-05-14T14:51:18.571Z,2.10
2023-05-14T14:53:45.250Z,3.32
2023-05-14T14:56:11.929Z,3.02
2023-05-14T14:58:38.571Z,2.17
2023-05-14T15:01:05.346Z,2.54
2023-05-14T15:03:32.176Z,3.36
2023-05-14T15:05:58.997Z,3.93
2023-05-14T15:08:26.222Z,4.23
2023-05-14T15:10:52.944Z,3.95
2023-05-14T15:13:19.628Z,3.03
2023-05-14T15:15:46.342Z,2.98
2023-05-14T15:18:13.010Z,1.97
2023-05-14T15:20:39.768Z,1.88
2023-05-14T15:23:06.411Z,1.78
2023-05-14T15:25:33.060Z,1.77
2023-05-14T15:27:59.721Z,1.86
2023-05-14T15:30:26.391Z,1.88
2023-05-14T15:32:53.083Z,2.61
2023-05-14T15:35:19.988Z,3.06
2023-05-14T15:37:46.647Z,2.60
2023-05-14T15:40:13.287Z,2.11
2023-05-14T15:42:41.112Z,1.92
2023-05-14T15:45:08.541Z,1.65
2023-05-14T15:47:35.958Z,1.88
2023-05-14T15:50:02.653Z,2.35
2023-05-14T15:52:29.279Z,1.87
2023-05-14T15:54:56.001Z,2.44
2023-05-14T15:57:23.192Z,3.46
2023-05-14T15:59:49.964Z,2.02
2023-05-14T16:02:16.574Z,1.88
2023-05-14T16:04:43.178Z,2.18
2023-05-14T16:07:09.970Z,2.30
2023-05-14T16:09:36.869Z,2.26
2023-05-14T16:12:04.831Z,2.10
2023-05-14T16:14:34.252Z,2.20
2023-05-14T16:17:00.945Z,2.43
2023-05-14T16:19:27.836Z,2.78
2023-05-14T16:21:54.484Z,2.73
2023-05-14T16:24:21.128Z,2.09
2023-05-14T16:26:47.756Z,2.00
2023-05-14T16:29:14.347Z,2.31
2023-05-14T16:31:40.972Z,2.36
2023-05-14T16:34:07.591Z,2.01
2023-05-14T16:36:34.213Z,1.84
2023-05-14T16:41:30.300Z,2.47
2023-05-14T16:43:56.942Z,2.73
2023-05-14T16:46:23.634Z,2.26
2023-05-14T16:48:50.292Z,2.51
2023-05-14T16:51:16.961Z,2.45
2023-05-14T16:53:43.578Z,2.12
2023-05-14T16:56:10.211Z,2.51
2023-05-14T16:58:36.861Z,2.54
2023-05-14T17:01:03.517Z,2.46
2023-05-14T17:03:30.128Z,2.80
2023-05-14T17:05:56.714Z,2.45
2023-05-14T17:08:23.326Z,2.44
2023-05-14T17:10:49.948Z,2.32
2023-05-14T17:13:16.574Z,2.08
2023-05-14T17:15:43.276Z,2.56
2023-05-14T17:18:09.963Z,2.44
2023-05-14T17:20:36.640Z,2.26
2023-05-14T17:23:03.255Z,2.06
2023-05-14T17:25:29.900Z,1.94
2023-05-14T17:27:56.558Z,2.38
2023-05-14T17:30:23.180Z,2.13
2023-05-14T17:32:51.103Z,2.19
2023-05-14T17:35:18.003Z,2.09
2023-05-14T17:37:44.683Z,2.10
2023-05-14T17:40:11.757Z,2.21
2023-05-14T17:42:38.399Z,2.46
2023-05-14T17:45:05.498Z,7.69
2023-05-14T17:47:32.239Z,8.21
2023-05-14T17:49:58.936Z,15.44
2023-05-14T17:52:25.619Z,19.80
2023-05-14T17:54:52.282Z,4.51
2023-05-14T17:57:18.939Z,2.42
2023-05-14T17:59:45.616Z,13.80
2023-05-14T18:02:12.260Z,4.87
2023-05-14T18:04:38.869Z,3.07
2023-05-14T18:07:05.470Z,3.88
2023-05-14T18:09:32.141Z,3.30
2023-05-14T18:11:58.779Z,3.01
2023-05-14T18:14:25.440Z,3.36
2023-05-14T18:16:52.151Z,3.12
2023-05-14T18:19:19.484Z,5.07
2023-05-14T18:21:46.096Z,8.99
2023-05-14T18:24:12.728Z,5.02
2023-05-14T18:26:39.429Z,14.62
2023-05-14T18:29:06.082Z,3.35
2023-05-14T18:31:32.764Z,2.47
2023-05-14T18:33:59.406Z,1.60
2023-05-14T18:36:26.030Z,2.03
2023-05-14T18:38:52.696Z,1.98
2023-05-14T18:41:19.325Z,2.12
2023-05-14T18:43:45.964Z,1.71
2023-05-14T18:46:12.657Z,1.69
2023-05-14T18:48:39.866Z,1.80
2023-05-14T18:51:06.535Z,2.12
2023-05-14T18:53:33.144Z,2.20
2023-05-14T18:55:59.928Z,2.04
2023-05-14T18:58:26.604Z,1.90
2023-05-14T19:00:53.295Z,2.03
2023-05-14T19:03:20.288Z,2.18
2023-05-14T19:05:46.998Z,1.85
2023-05-14T19:08:14.068Z,1.85
2023-05-14T19:10:40.692Z,1.71
2023-05-14T19:13:07.338Z,1.89
2023-05-14T19:15:33.976Z,2.26
2023-05-14T19:18:00.749Z,1.84
2023-05-14T19:20:27.490Z,1.89
2023-05-14T19:22:54.092Z,1.39
2023-05-14T19:25:20.746Z,1.54
2023-05-14T19:27:47.341Z,1.36
2023-05-14T19:30:13.982Z,1.32
2023-05-14T19:32:40.821Z,1.09
2023-05-14T19:35:07.647Z,1.22
2023-05-14T19:37:34.276Z,1.17
2023-05-14T19:40:00.859Z,1.40
2023-05-14T19:42:27.469Z,1.28
2023-05-14T19:44:54.059Z,1.25
2023-05-14T19:47:20.645Z,1.54
2023-05-14T19:49:48.526Z,1.37
2023-05-14T19:52:15.193Z,3.14
2023-05-14T19:54:41.840Z,2.54
2023-05-14T19:57:09.208Z,2.09
2023-05-14T19:59:35.842Z,2.27
2023-05-14T20:02:02.542Z,2.00
2023-05-14T20:04:29.207Z,2.22
2023-05-14T20:06:55.855Z,2.67
2023-05-14T20:09:22.692Z,2.43
2023-05-14T20:11:49.319Z,2.33
2023-05-14T20:14:16.002Z,2.16
2023-05-14T20:16:42.656Z,4.82
2023-05-14T20:19:09.338Z,6.86
2023-05-14T20:21:36.193Z,24.00
2023-05-14T20:24:02.848Z,28.86
2023-05-14T20:26:29.497Z,28.90
2023-05-14T20:28:56.169Z,70.58
2023-05-14T20:31:22.940Z,36.66
2023-05-14T20:33:49.663Z,41.15
2023-05-14T20:36:16.328Z,11.39
2023-05-14T20:38:42.993Z,16.72
2023-05-14T20:41:09.643Z,56.69
2023-05-14T20:43:36.353Z,34.28
2023-05-14T20:46:02.972Z,30.13
2023-05-14T20:48:29.645Z,39.23
2023-05-14T20:50:56.283Z,13.16
2023-05-14T20:53:22.910Z,13.58
2023-05-14T20:55:49.527Z,9.79
2023-05-14T20:58:16.166Z,10.52
2023-05-14T21:00:42.781Z,8.16
2023-05-14T21:03:09.813Z,4.40
2023-05-14T21:05:36.696Z,3.83
2023-05-14T21:08:03.350Z,3.07
2023-05-14T21:10:29.982Z,25.59
2023-05-14T21:12:56.691Z,20.20
2023-05-14T21:15:23.683Z,5.94
2023-05-14T21:17:50.656Z,3.08
2023-05-14T21:20:17.310Z,4.06
2023-05-14T21:22:43.964Z,2.61
2023-05-14T21:25:10.736Z,3.54
2023-05-14T21:27:37.402Z,3.82
2023-05-14T21:30:04.314Z,3.95
2023-05-14T21:32:31.023Z,3.53
2023-05-14T21:34:57.616Z,2.98
2023-05-14T21:37:24.234Z,3.05
2023-05-14T21:39:50.942Z,3.36
2023-05-14T21:42:17.538Z,3.03
2023-05-14T21:44:44.170Z,3.81
2023-05-14T21:47:10.821Z,3.58
2023-05-14T21:49:37.413Z,3.17
2023-05-14T21:52:04.222Z,5.45
2023-05-14T21:54:30.868Z,4.08
2023-05-14T21:56:57.560Z,3.76
2023-05-14T21:59:24.201Z,2.98
2023-05-14T22:02:06.272Z,2.92
2023-05-14T22:04:33.883Z,3.41
2023-05-14T22:07:00.519Z,8.70
2023-05-14T22:09:27.450Z,6.58
2023-05-14T22:11:54.118Z,4.04
2023-05-14T22:14:20.725Z,6.09
2023-05-14T22:16:47.406Z,4.35
2023-05-14T22:19:15.869Z,3.63
2023-05-14T22:21:42.563Z,2.77
2023-05-14T22:24:09.168Z,4.16
2023-05-14T22:26:35.816Z,4.17
2023-05-14T22:29:02.447Z,3.94
2023-05-14T22:31:29.359Z,4.16
2023-05-14T22:33:56.099Z,3.71
2023-05-14T22:36:22.744Z,3.94
2023-05-14T22:38:49.429Z,4.35
2023-05-14T22:41:16.073Z,3.83
2023-05-14T22:43:42.715Z,3.84
2023-05-14T22:46:09.356Z,3.19
2023-05-14T22:48:35.982Z,2.86
2023-05-14T22:51:02.575Z,3.05
2023-05-14T22:53:29.177Z,2.74
2023-05-14T22:55:55.809Z,2.61
2023-05-14T22:58:22.428Z,2.43
2023-05-14T23:00:49.034Z,2.40
2023-05-14T23:03:15.685Z,2.35
2023-05-14T23:05:42.332Z,2.21
2023-05-14T23:08:08.970Z,2.10
2023-05-14T23:10:35.665Z,2.59
2023-05-14T23:13:03.627Z,2.83
2023-05-14T23:15:30.263Z,3.31
2023-05-14T23:17:56.953Z,2.92
2023-05-14T23:20:23.615Z,2.36
2023-05-14T23:22:50.137Z,2.41
2023-05-14T23:25:16.749Z,2.34
2023-05-14T23:27:43.372Z,2.43
2023-05-14T23:30:10.471Z,2.02
2023-05-14T23:32:37.070Z,1.95
2023-05-14T23:35:03.911Z,1.91
2023-05-14T23:37:30.597Z,2.13
2023-05-14T23:39:57.199Z,2.02
2023-05-14T23:42:23.804Z,2.03
2023-05-14T23:44:50.428Z,2.10
2023-05-14T23:47:16.974Z,2.15
2023-05-14T23:49:43.525Z,2.09
2023-05-14T23:52:10.061Z,2.06
2023-05-14T23:54:36.694Z,1.90
2023-05-14T23:57:03.335Z,1.83
2023-05-14T23:59:29.945Z,2.03
